sensor_id;sensor_type;location;lat;lon;timestamp;pressure;altitude;pressure_sealevel;temperature;humidity
39275;BME280;24980;48.874;2.332;2023-05-03T00:01:00;102019.30;;;25.35;47.22
39275;BME280;24980;48.874;2.332;2023-05-03T00:03:32;102019.21;;;25.34;47.24
39275;BME280;24980;48.874;2.332;2023-05-03T00:06:13;102017.52;;;25.35;47.23
39275;BME280;24980;48.874;2.332;2023-05-03T00:08:30;102014.20;;;25.34;47.21
39275;BME280;24980;48.874;2.332;2023-05-03T00:11:03;102010.30;;;25.34;47.18
39275;BME280;24980;48.874;2.332;2023-05-03T00:13:31;102000.91;;;25.32;47.16
39275;BME280;24980;48.874;2.332;2023-05-03T00:16:01;102000.40;;;25.32;47.15
39275;BME280;24980;48.874;2.332;2023-05-03T00:18:31;101999.72;;;25.32;47.12
39275;BME280;24980;48.874;2.332;2023-05-03T00:21:01;102001.59;;;25.31;47.10
39275;BME280;24980;48.874;2.332;2023-05-03T00:23:31;102007.36;;;25.30;47.09
39275;BME280;24980;48.874;2.332;2023-05-03T00:26:01;102008.88;;;25.30;47.06
39275;BME280;24980;48.874;2.332;2023-05-03T00:28:31;102014.23;;;25.31;47.03
39275;BME280;24980;48.874;2.332;2023-05-03T00:31:07;102021.53;;;25.31;47.01
39275;BME280;24980;48.874;2.332;2023-05-03T00:33:31;102023.48;;;25.31;47.01
39275;BME280;24980;48.874;2.332;2023-05-03T00:36:12;102021.95;;;25.30;47.00
39275;BME280;24980;48.874;2.332;2023-05-03T00:38:32;102019.91;;;25.30;46.98
39275;BME280;24980;48.874;2.332;2023-05-03T00:41:02;102013.58;;;25.30;46.96
39275;BME280;24980;48.874;2.332;2023-05-03T00:43:33;102015.62;;;25.30;46.96
39275;BME280;24980;48.874;2.332;2023-05-03T00:46:04;102011.72;;;25.29;46.95
39275;BME280;24980;48.874;2.332;2023-05-03T00:48:33;102010.27;;;25.29;46.94
39275;BME280;24980;48.874;2.332;2023-05-03T00:51:04;102006.11;;;25.30;46.94
39275;BME280;24980;48.874;2.332;2023-05-03T00:53:34;102002.34;;;25.30;46.93
39275;BME280;24980;48.874;2.332;2023-05-03T00:56:05;101999.47;;;25.31;46.92
39275;BME280;24980;48.874;2.332;2023-05-03T00:58:38;101997.94;;;25.32;46.92
39275;BME280;24980;48.874;2.332;2023-05-03T01:01:06;101987.92;;;25.33;46.91
39275;BME280;24980;48.874;2.332;2023-05-03T01:03:37;101989.28;;;25.33;46.91
39275;BME280;24980;48.874;2.332;2023-05-03T01:06:11;101992.47;;;25.34;46.91
39275;BME280;24980;48.874;2.332;2023-05-03T01:08:42;101993.23;;;25.34;46.91
39275;BME280;24980;48.874;2.332;2023-05-03T01:11:26;101992.73;;;25.34;46.94
39275;BME280;24980;48.874;2.332;2023-05-03T01:13:55;101985.01;;;25.36;46.95
39275;BME280;24980;48.874;2.332;2023-05-03T01:16:23;101989.84;;;25.35;46.97
39275;BME280;24980;48.874;2.332;2023-05-03T01:18:39;101990.53;;;25.36;46.97
39275;BME280;24980;48.874;2.332;2023-05-03T01:21:10;101988.54;;;25.37;46.96
39275;BME280;24980;48.874;2.332;2023-05-03T01:23:50;101982.09;;;25.38;46.94
39275;BME280;24980;48.874;2.332;2023-05-03T01:26:20;101979.80;;;25.38;46.93
39275;BME280;24980;48.874;2.332;2023-05-03T01:28:41;101991.85;;;25.38;46.93
39275;BME280;24980;48.874;2.332;2023-05-03T01:31:16;101994.56;;;25.38;46.92
39275;BME280;24980;48.874;2.332;2023-05-03T01:33:47;101995.75;;;25.39;46.91
39275;BME280;24980;48.874;2.332;2023-05-03T01:36:19;102000.77;;;25.39;46.88
39275;BME280;24980;48.874;2.332;2023-05-03T01:38:44;102001.75;;;25.40;46.86
39275;BME280;24980;48.874;2.332;2023-05-03T01:41:17;102003.95;;;25.40;46.84
39275;BME280;24980;48.874;2.332;2023-05-03T01:43:45;102006.50;;;25.40;46.83
39275;BME280;24980;48.874;2.332;2023-05-03T01:46:15;102007.02;;;25.41;46.81
39275;BME280;24980;48.874;2.332;2023-05-03T01:48:46;102008.97;;;25.41;46.80
39275;BME280;24980;48.874;2.332;2023-05-03T01:51:15;102005.48;;;25.40;46.78
39275;BME280;24980;48.874;2.332;2023-05-03T01:54:02;102007.27;;;25.41;46.76
39275;BME280;24980;48.874;2.332;2023-05-03T01:56:16;102008.71;;;25.42;46.75
39275;BME280;24980;48.874;2.332;2023-05-03T01:58:47;102009.73;;;25.42;46.75
39275;BME280;24980;48.874;2.332;2023-05-03T02:01:17;102011.09;;;25.43;46.75
39275;BME280;24980;48.874;2.332;2023-05-03T02:03:47;102014.53;;;25.43;46.74
39275;BME280;24980;48.874;2.332;2023-05-03T02:06:17;102017.77;;;25.44;46.74
39275;BME280;24980;48.874;2.332;2023-05-03T02:08:47;102012.92;;;25.44;46.74
39275;BME280;24980;48.874;2.332;2023-05-03T02:11:18;102011.98;;;25.44;46.74
39275;BME280;24980;48.874;2.332;2023-05-03T02:13:48;102016.32;;;25.45;46.74
39275;BME280;24980;48.874;2.332;2023-05-03T02:16:18;102010.52;;;25.46;46.75
39275;BME280;24980;48.874;2.332;2023-05-03T02:18:49;102008.94;;;25.46;46.76
39275;BME280;24980;48.874;2.332;2023-05-03T02:21:19;102009.08;;;25.47;46.76
39275;BME280;24980;48.874;2.332;2023-05-03T02:23:49;102007.63;;;25.47;46.76
39275;BME280;24980;48.874;2.332;2023-05-03T02:26:22;102014.17;;;25.47;46.76
39275;BME280;24980;48.874;2.332;2023-05-03T02:28:50;102011.70;;;25.48;46.75
39275;BME280;24980;48.874;2.332;2023-05-03T02:31:20;102014.42;;;25.47;46.76
39275;BME280;24980;48.874;2.332;2023-05-03T02:33:51;102012.89;;;25.47;46.76
39275;BME280;24980;48.874;2.332;2023-05-03T02:36:21;102013.31;;;25.47;46.76
39275;BME280;24980;48.874;2.332;2023-05-03T02:38:51;102008.81;;;25.47;46.77
39275;BME280;24980;48.874;2.332;2023-05-03T02:41:21;102005.77;;;25.47;46.76
39275;BME280;24980;48.874;2.332;2023-05-03T02:43:51;102002.53;;;25.48;46.76
39275;BME280;24980;48.874;2.332;2023-05-03T02:46:23;102005.77;;;25.48;46.77
39275;BME280;24980;48.874;2.332;2023-05-03T02:48:52;102008.56;;;25.49;46.77
39275;BME280;24980;48.874;2.332;2023-05-03T02:51:22;102013.48;;;25.49;46.77
39275;BME280;24980;48.874;2.332;2023-05-03T02:53:52;102011.70;;;25.49;46.79
39275;BME280;24980;48.874;2.332;2023-05-03T02:56:26;102012.13;;;25.49;46.80
39275;BME280;24980;48.874;2.332;2023-05-03T03:01:23;102008.05;;;25.49;46.83
39275;BME280;24980;48.874;2.332;2023-05-03T03:03:55;102005.00;;;25.50;46.84
39275;BME280;24980;48.874;2.332;2023-05-03T03:06:24;102003.13;;;25.50;46.86
39275;BME280;24980;48.874;2.332;2023-05-03T03:08:54;101996.77;;;25.50;46.90
39275;BME280;24980;48.874;2.332;2023-05-03T03:11:25;101992.02;;;25.50;46.91
39275;BME280;24980;48.874;2.332;2023-05-03T03:13:55;101991.33;;;25.50;46.92
39275;BME280;24980;48.874;2.332;2023-05-03T03:16:25;101985.56;;;25.51;46.92
39275;BME280;24980;48.874;2.332;2023-05-03T03:18:56;101987.52;;;25.51;46.92
39275;BME280;24980;48.874;2.332;2023-05-03T03:21:26;101979.02;;;25.52;46.92
39275;BME280;24980;48.874;2.332;2023-05-03T03:23:56;101979.33;;;25.54;46.91
39275;BME280;24980;48.874;2.332;2023-05-03T03:26:26;101977.04;;;25.54;46.90
39275;BME280;24980;48.874;2.332;2023-05-03T03:28:57;101978.06;;;25.54;46.91
39275;BME280;24980;48.874;2.332;2023-05-03T03:31:29;101971.34;;;25.54;46.93
39275;BME280;24980;48.874;2.332;2023-05-03T03:33:58;101970.92;;;25.55;46.94
39275;BME280;24980;48.874;2.332;2023-05-03T03:36:28;101968.09;;;25.56;46.95
39275;BME280;24980;48.874;2.332;2023-05-03T03:38:58;101966.14;;;25.56;46.95
39275;BME280;24980;48.874;2.332;2023-05-03T03:41:28;101965.20;;;25.56;46.94
39275;BME280;24980;48.874;2.332;2023-05-03T03:43:58;101964.86;;;25.57;46.95
39275;BME280;24980;48.874;2.332;2023-05-03T03:46:28;101966.14;;;25.57;46.96
39275;BME280;24980;48.874;2.332;2023-05-03T03:48:58;101963.77;;;25.58;46.96
39275;BME280;24980;48.874;2.332;2023-05-03T03:51:29;101963.67;;;25.59;46.97
39275;BME280;24980;48.874;2.332;2023-05-03T03:53:59;101966.56;;;25.59;46.99
39275;BME280;24980;48.874;2.332;2023-05-03T03:56:29;101966.02;;;25.59;47.00
39275;BME280;24980;48.874;2.332;2023-05-03T03:58:59;101957.19;;;25.59;47.01
39275;BME280;24980;48.874;2.332;2023-05-03T04:01:31;101962.45;;;25.60;47.04
39275;BME280;24980;48.874;2.332;2023-05-03T04:04:01;101960.24;;;25.62;47.10
39275;BME280;24980;48.874;2.332;2023-05-03T04:06:31;101958.69;;;25.64;47.16
39275;BME280;24980;48.874;2.332;2023-05-03T04:09:01;101953.84;;;25.64;47.23
39275;BME280;24980;48.874;2.332;2023-05-03T04:11:31;101954.44;;;25.65;47.28
39275;BME280;24980;48.874;2.332;2023-05-03T04:14:02;101954.57;;;25.66;47.33
39275;BME280;24980;48.874;2.332;2023-05-03T04:16:32;101957.88;;;25.67;47.34
39275;BME280;24980;48.874;2.332;2023-05-03T04:19:02;101963.31;;;25.67;47.35
39275;BME280;24980;48.874;2.332;2023-05-03T04:21:33;101961.45;;;25.67;47.34
39275;BME280;24980;48.874;2.332;2023-05-03T04:24:05;101959.33;;;25.68;47.33
39275;BME280;24980;48.874;2.332;2023-05-03T04:26:34;101955.67;;;25.68;47.32
39275;BME280;24980;48.874;2.332;2023-05-03T04:29:04;101962.09;;;25.69;47.30
39275;BME280;24980;48.874;2.332;2023-05-03T04:31:34;101957.59;;;25.70;47.31
39275;BME280;24980;48.874;2.332;2023-05-03T04:34:04;101953.77;;;25.70;47.35
39275;BME280;24980;48.874;2.332;2023-05-03T04:36:49;101952.58;;;25.71;47.37
39275;BME280;24980;48.874;2.332;2023-05-03T04:39:05;101958.35;;;25.72;47.37
39275;BME280;24980;48.874;2.332;2023-05-03T04:41:35;101957.33;;;25.72;47.36
39275;BME280;24980;48.874;2.332;2023-05-03T04:44:05;101956.62;;;25.72;47.34
39275;BME280;24980;48.874;2.332;2023-05-03T04:46:35;101959.00;;;25.72;47.33
39275;BME280;24980;48.874;2.332;2023-05-03T04:49:05;101964.09;;;25.73;47.30
39275;BME280;24980;48.874;2.332;2023-05-03T04:51:35;101965.20;;;25.73;47.29
39275;BME280;24980;48.874;2.332;2023-05-03T04:54:05;101975.05;;;25.74;47.27
39275;BME280;24980;48.874;2.332;2023-05-03T04:56:35;101973.98;;;25.76;47.24
39275;BME280;24980;48.874;2.332;2023-05-03T04:59:05;101976.03;;;25.77;47.22
39275;BME280;24980;48.874;2.332;2023-05-03T05:01:35;101971.19;;;25.78;47.21
39275;BME280;24980;48.874;2.332;2023-05-03T05:04:05;101973.73;;;25.78;47.17
39275;BME280;24980;48.874;2.332;2023-05-03T05:06:35;101971.41;;;25.79;47.15
39275;BME280;24980;48.874;2.332;2023-05-03T05:11:36;101978.45;;;25.80;47.10
39275;BME280;24980;48.874;2.332;2023-05-03T05:14:07;101974.97;;;25.81;47.05
39275;BME280;24980;48.874;2.332;2023-05-03T05:16:37;101977.23;;;25.83;47.01
39275;BME280;24980;48.874;2.332;2023-05-03T05:19:07;101976.30;;;25.84;46.99
39275;BME280;24980;48.874;2.332;2023-05-03T05:21:37;101974.12;;;25.86;46.96
39275;BME280;24980;48.874;2.332;2023-05-03T05:24:07;101973.96;;;25.87;46.93
39275;BME280;24980;48.874;2.332;2023-05-03T05:26:40;101969.45;;;25.87;46.91
39275;BME280;24980;48.874;2.332;2023-05-03T05:29:08;101968.49;;;25.88;46.88
39275;BME280;24980;48.874;2.332;2023-05-03T05:31:38;101970.53;;;25.89;46.86
39275;BME280;24980;48.874;2.332;2023-05-03T05:34:08;101967.30;;;25.88;46.83
39275;BME280;24980;48.874;2.332;2023-05-03T05:36:38;101962.97;;;25.88;46.81
39275;BME280;24980;48.874;2.332;2023-05-03T05:39:08;101966.53;;;25.88;46.80
39275;BME280;24980;48.874;2.332;2023-05-03T05:41:38;101972.05;;;25.89;46.78
39275;BME280;24980;48.874;2.332;2023-05-03T05:44:12;101969.08;;;25.90;46.75
39275;BME280;24980;48.874;2.332;2023-05-03T05:46:40;101973.72;;;25.91;46.73
39275;BME280;24980;48.874;2.332;2023-05-03T05:49:10;101976.98;;;25.91;46.72
39275;BME280;24980;48.874;2.332;2023-05-03T05:51:40;101975.16;;;25.91;46.71
39275;BME280;24980;48.874;2.332;2023-05-03T05:54:10;101976.34;;;25.92;46.70
39275;BME280;24980;48.874;2.332;2023-05-03T05:56:40;101980.68;;;25.92;46.68
39275;BME280;24980;48.874;2.332;2023-05-03T05:59:10;101981.88;;;25.92;46.67
39275;BME280;24980;48.874;2.332;2023-05-03T06:01:40;101982.47;;;25.92;46.66
39275;BME280;24980;48.874;2.332;2023-05-03T06:04:13;101982.98;;;25.92;46.65
39275;BME280;24980;48.874;2.332;2023-05-03T06:06:40;101986.38;;;25.92;46.63
39275;BME280;24980;48.874;2.332;2023-05-03T06:09:11;101988.58;;;25.92;46.63
39275;BME280;24980;48.874;2.332;2023-05-03T06:11:41;101993.38;;;25.91;46.64
39275;BME280;24980;48.874;2.332;2023-05-03T06:14:11;101995.72;;;25.92;46.66
39275;BME280;24980;48.874;2.332;2023-05-03T06:16:41;101989.09;;;25.98;46.65
39275;BME280;24980;48.874;2.332;2023-05-03T06:19:17;101985.83;;;26.03;46.63
39275;BME280;24980;48.874;2.332;2023-05-03T06:21:44;101985.54;;;26.04;46.65
39275;BME280;24980;48.874;2.332;2023-05-03T06:24:12;101979.08;;;26.04;46.65
39275;BME280;24980;48.874;2.332;2023-05-03T06:26:42;101977.67;;;26.03;46.62
39275;BME280;24980;48.874;2.332;2023-05-03T06:29:12;101977.59;;;26.02;46.62
39275;BME280;24980;48.874;2.332;2023-05-03T06:31:42;101973.69;;;26.01;46.60
39275;BME280;24980;48.874;2.332;2023-05-03T06:34:12;101972.19;;;26.00;46.58
39275;BME280;24980;48.874;2.332;2023-05-03T06:36:42;101968.38;;;25.98;46.56
39275;BME280;24980;48.874;2.332;2023-05-03T06:39:12;101970.10;;;25.88;46.44
39275;BME280;24980;48.874;2.332;2023-05-03T06:41:42;101975.12;;;25.75;46.11
39275;BME280;24980;48.874;2.332;2023-05-03T06:44:12;101975.92;;;25.62;45.80
39275;BME280;24980;48.874;2.332;2023-05-03T06:46:43;101979.60;;;25.62;45.55
39275;BME280;24980;48.874;2.332;2023-05-03T06:49:13;101976.86;;;25.71;45.34
39275;BME280;24980;48.874;2.332;2023-05-03T06:51:49;101981.63;;;25.77;45.25
39275;BME280;24980;48.874;2.332;2023-05-03T06:54:13;101983.47;;;25.80;45.23
39275;BME280;24980;48.874;2.332;2023-05-03T06:56:43;101984.40;;;25.81;45.23
39275;BME280;24980;48.874;2.332;2023-05-03T06:59:13;101979.73;;;25.81;45.26
39275;BME280;24980;48.874;2.332;2023-05-03T07:01:43;101977.23;;;25.82;45.27
39275;BME280;24980;48.874;2.332;2023-05-03T07:04:13;101972.00;;;25.81;45.27
39275;BME280;24980;48.874;2.332;2023-05-03T07:06:43;101964.52;;;25.81;45.29
39275;BME280;24980;48.874;2.332;2023-05-03T07:09:13;101963.50;;;25.81;45.29
39275;BME280;24980;48.874;2.332;2023-05-03T07:11:44;101965.12;;;25.80;45.30
39275;BME280;24980;48.874;2.332;2023-05-03T07:14:14;101965.46;;;25.78;45.32
39275;BME280;24980;48.874;2.332;2023-05-03T07:16:45;101965.84;;;25.76;45.35
39275;BME280;24980;48.874;2.332;2023-05-03T07:19:15;101959.16;;;25.75;45.35
39275;BME280;24980;48.874;2.332;2023-05-03T07:21:45;101961.80;;;25.73;45.32
39275;BME280;24980;48.874;2.332;2023-05-03T07:24:23;101957.98;;;25.73;45.30
39275;BME280;24980;48.874;2.332;2023-05-03T07:26:48;101958.57;;;25.73;45.30
39275;BME280;24980;48.874;2.332;2023-05-03T07:29:16;101956.45;;;25.74;45.32
39275;BME280;24980;48.874;2.332;2023-05-03T07:31:46;101950.84;;;25.74;45.34
39275;BME280;24980;48.874;2.332;2023-05-03T07:34:16;101944.81;;;25.74;45.35
39275;BME280;24980;48.874;2.332;2023-05-03T07:36:47;101944.30;;;25.75;45.37
39275;BME280;24980;48.874;2.332;2023-05-03T07:39:16;101940.56;;;25.74;45.40
39275;BME280;24980;48.874;2.332;2023-05-03T07:41:46;101937.85;;;25.73;45.42
39275;BME280;24980;48.874;2.332;2023-05-03T07:44:16;101932.25;;;25.73;45.44
39275;BME280;24980;48.874;2.332;2023-05-03T07:46:47;101928.89;;;25.72;45.46
39275;BME280;24980;48.874;2.332;2023-05-03T07:49:17;101923.88;;;25.71;45.46
39275;BME280;24980;48.874;2.332;2023-05-03T07:51:47;101915.47;;;25.70;45.48
39275;BME280;24980;48.874;2.332;2023-05-03T07:54:17;101915.89;;;25.69;45.50
39275;BME280;24980;48.874;2.332;2023-05-03T07:56:59;101911.52;;;25.68;45.51
39275;BME280;24980;48.874;2.332;2023-05-03T07:59:18;101905.15;;;25.68;45.55
39275;BME280;24980;48.874;2.332;2023-05-03T08:01:48;101909.73;;;25.68;45.57
39275;BME280;24980;48.874;2.332;2023-05-03T08:04:19;101901.08;;;25.67;45.60
39275;BME280;24980;48.874;2.332;2023-05-03T08:06:49;101898.27;;;25.66;45.61
39275;BME280;24980;48.874;2.332;2023-05-03T08:09:19;101900.66;;;25.66;45.64
39275;BME280;24980;48.874;2.332;2023-05-03T08:11:50;101901.70;;;25.64;45.65
39275;BME280;24980;48.874;2.332;2023-05-03T08:14:20;101901.03;;;25.63;45.68
39275;BME280;24980;48.874;2.332;2023-05-03T08:16:50;101900.27;;;25.63;45.70
39275;BME280;24980;48.874;2.332;2023-05-03T08:19:20;101893.59;;;25.61;45.71
39275;BME280;24980;48.874;2.332;2023-05-03T08:21:50;101894.11;;;25.60;45.73
39275;BME280;24980;48.874;2.332;2023-05-03T08:24:20;101892.33;;;25.59;45.75
39275;BME280;24980;48.874;2.332;2023-05-03T08:26:51;101887.44;;;25.58;45.78
39275;BME280;24980;48.874;2.332;2023-05-03T08:29:26;101886.50;;;25.57;45.81
39275;BME280;24980;48.874;2.332;2023-05-03T08:31:51;101886.80;;;25.56;45.84
39275;BME280;24980;48.874;2.332;2023-05-03T08:34:23;101886.38;;;25.54;45.86
39275;BME280;24980;48.874;2.332;2023-05-03T08:36:52;101886.38;;;25.53;45.89
39275;BME280;24980;48.874;2.332;2023-05-03T08:39:25;101879.53;;;25.52;45.94
39275;BME280;24980;48.874;2.332;2023-05-03T08:41:53;101881.83;;;25.51;46.03
39275;BME280;24980;48.874;2.332;2023-05-03T08:44:28;101883.61;;;25.50;46.09
39275;BME280;24980;48.874;2.332;2023-05-03T08:46:54;101884.80;;;25.50;46.16
39275;BME280;24980;48.874;2.332;2023-05-03T08:49:24;101882.52;;;25.48;46.22
39275;BME280;24980;48.874;2.332;2023-05-03T08:51:55;101882.84;;;25.48;46.25
39275;BME280;24980;48.874;2.332;2023-05-03T08:54:25;101877.84;;;25.47;46.28
39275;BME280;24980;48.874;2.332;2023-05-03T08:56:56;101877.03;;;25.44;46.29
39275;BME280;24980;48.874;2.332;2023-05-03T08:59:26;101876.86;;;25.43;46.30
39275;BME280;24980;48.874;2.332;2023-05-03T09:01:56;101871.55;;;25.42;46.32
39275;BME280;24980;48.874;2.332;2023-05-03T09:04:32;101872.48;;;25.40;46.34
39275;BME280;24980;48.874;2.332;2023-05-03T09:07:12;101876.85;;;25.39;46.39
39275;BME280;24980;48.874;2.332;2023-05-03T09:09:32;101874.39;;;25.38;46.45
39275;BME280;24980;48.874;2.332;2023-05-03T09:11:57;101865.91;;;25.37;46.51
39275;BME280;24980;48.874;2.332;2023-05-03T09:14:27;101868.14;;;25.36;46.54
39275;BME280;24980;48.874;2.332;2023-05-03T09:17:19;101859.41;;;25.36;46.56
39275;BME280;24980;48.874;2.332;2023-05-03T09:19:27;101859.83;;;25.34;46.56
39275;BME280;24980;48.874;2.332;2023-05-03T09:22:05;101858.08;;;25.33;46.58
39275;BME280;24980;48.874;2.332;2023-05-03T09:24:28;101856.22;;;25.31;46.62
39275;BME280;24980;48.874;2.332;2023-05-03T09:29:31;101856.93;;;25.28;46.65
39275;BME280;24980;48.874;2.332;2023-05-03T09:32:02;101857.95;;;25.27;46.67
39275;BME280;24980;48.874;2.332;2023-05-03T09:34:32;101860.36;;;25.26;46.70
39275;BME280;24980;48.874;2.332;2023-05-03T09:37:01;101857.98;;;25.25;46.73
39275;BME280;24980;48.874;2.332;2023-05-03T09:39:32;101856.20;;;25.24;46.77
39275;BME280;24980;48.874;2.332;2023-05-03T09:42:17;101852.76;;;25.23;46.80
39275;BME280;24980;48.874;2.332;2023-05-03T09:44:48;101854.12;;;25.22;46.83
39275;BME280;24980;48.874;2.332;2023-05-03T09:47:06;101854.46;;;25.21;46.88
39275;BME280;24980;48.874;2.332;2023-05-03T09:49:33;101846.52;;;25.19;46.91
39275;BME280;24980;48.874;2.332;2023-05-03T09:52:04;101853.48;;;25.18;46.93
39275;BME280;24980;48.874;2.332;2023-05-03T09:54:34;101852.71;;;25.18;46.95
39275;BME280;24980;48.874;2.332;2023-05-03T09:57:06;101846.38;;;25.17;46.96
39275;BME280;24980;48.874;2.332;2023-05-03T10:02:06;101848.76;;;25.14;47.00
39275;BME280;24980;48.874;2.332;2023-05-03T10:04:42;101845.66;;;25.13;47.02
39275;BME280;24980;48.874;2.332;2023-05-03T10:07:09;101837.77;;;25.11;47.02
39275;BME280;24980;48.874;2.332;2023-05-03T10:09:45;101840.09;;;25.10;47.04
39275;BME280;24980;48.874;2.332;2023-05-03T10:12:11;101830.84;;;25.08;47.03
39275;BME280;24980;48.874;2.332;2023-05-03T10:14:42;101830.34;;;25.08;47.03
39275;BME280;24980;48.874;2.332;2023-05-03T10:17:25;101827.83;;;25.06;47.04
39275;BME280;24980;48.874;2.332;2023-05-03T10:20:01;101823.50;;;25.06;47.05
39275;BME280;24980;48.874;2.332;2023-05-03T10:22:09;101828.34;;;25.05;47.08
39275;BME280;24980;48.874;2.332;2023-05-03T10:27:16;101822.82;;;25.05;47.11
39275;BME280;24980;48.874;2.332;2023-05-03T10:29:54;101811.66;;;25.04;47.13
39275;BME280;24980;48.874;2.332;2023-05-03T10:32:29;101814.38;;;25.03;47.13
39275;BME280;24980;48.874;2.332;2023-05-03T10:34:40;101807.33;;;25.03;47.14
39275;BME280;24980;48.874;2.332;2023-05-03T10:37:10;101801.65;;;25.03;47.15
39275;BME280;24980;48.874;2.332;2023-05-03T10:39:44;101800.46;;;25.02;47.15
39275;BME280;24980;48.874;2.332;2023-05-03T10:42:11;101799.87;;;25.02;47.16
39275;BME280;24980;48.874;2.332;2023-05-03T10:44:52;101800.12;;;25.02;47.18
39275;BME280;24980;48.874;2.332;2023-05-03T10:47:13;101801.23;;;25.02;47.22
39275;BME280;24980;48.874;2.332;2023-05-03T10:49:43;101794.61;;;25.01;47.27
39275;BME280;24980;48.874;2.332;2023-05-03T10:54:44;101782.56;;;25.03;47.35
39275;BME280;24980;48.874;2.332;2023-05-03T10:57:20;101771.37;;;25.03;47.37
39275;BME280;24980;48.874;2.332;2023-05-03T10:59:46;101767.30;;;25.03;47.35
39275;BME280;24980;48.874;2.332;2023-05-03T11:02:18;101769.16;;;25.04;47.34
39275;BME280;24980;48.874;2.332;2023-05-03T11:04:49;101766.28;;;25.04;47.32
39275;BME280;24980;48.874;2.332;2023-05-03T11:07:24;101760.25;;;25.03;47.31
39275;BME280;24980;48.874;2.332;2023-05-03T11:09:46;101761.78;;;25.03;47.30
39275;BME280;24980;48.874;2.332;2023-05-03T11:12:16;101753.89;;;25.03;47.28
39275;BME280;24980;48.874;2.332;2023-05-03T11:14:49;101756.27;;;25.03;47.25
39275;BME280;24980;48.874;2.332;2023-05-03T11:17:17;101751.35;;;25.03;47.25
39275;BME280;24980;48.874;2.332;2023-05-03T11:19:47;101745.75;;;25.03;47.24
39275;BME280;24980;48.874;2.332;2023-05-03T11:22:17;101746.77;;;25.03;47.24
39275;BME280;24980;48.874;2.332;2023-05-03T11:24:47;101742.19;;;25.03;47.24
39275;BME280;24980;48.874;2.332;2023-05-03T11:27:23;101740.75;;;25.04;47.23
39275;BME280;24980;48.874;2.332;2023-05-03T11:29:48;101740.91;;;25.04;47.22
39275;BME280;24980;48.874;2.332;2023-05-03T11:32:18;101732.34;;;25.04;47.22
39275;BME280;24980;48.874;2.332;2023-05-03T11:34:48;101723.87;;;25.04;47.21
39275;BME280;24980;48.874;2.332;2023-05-03T11:37:18;101728.66;;;25.05;47.21
39275;BME280;24980;48.874;2.332;2023-05-03T11:39:48;101720.19;;;25.06;47.21
39275;BME280;24980;48.874;2.332;2023-05-03T11:42:18;101713.73;;;25.06;47.21
39275;BME280;24980;48.874;2.332;2023-05-03T11:44:48;101716.45;;;25.07;47.20
39275;BME280;24980;48.874;2.332;2023-05-03T11:47:19;101705.59;;;25.07;47.20
39275;BME280;24980;48.874;2.332;2023-05-03T11:49:56;101700.38;;;25.08;47.19
39275;BME280;24980;48.874;2.332;2023-05-03T11:52:23;101696.65;;;25.08;47.17
39275;BME280;24980;48.874;2.332;2023-05-03T11:54:49;101692.41;;;25.08;47.17
39275;BME280;24980;48.874;2.332;2023-05-03T11:57:19;101691.55;;;25.09;47.16
39275;BME280;24980;48.874;2.332;2023-05-03T12:02:21;101687.91;;;25.10;47.16
39275;BME280;24980;48.874;2.332;2023-05-03T12:04:51;101683.41;;;25.09;47.17
39275;BME280;24980;48.874;2.332;2023-05-03T12:07:21;101666.87;;;25.10;47.19
39275;BME280;24980;48.874;2.332;2023-05-03T12:09:51;101667.55;;;25.11;47.19
39275;BME280;24980;48.874;2.332;2023-05-03T12:12:21;101667.08;;;25.11;47.22
39275;BME280;24980;48.874;2.332;2023-05-03T12:15:00;101666.69;;;25.11;47.22
39275;BME280;24980;48.874;2.332;2023-05-03T12:17:34;101669.45;;;25.12;47.23
39275;BME280;24980;48.874;2.332;2023-05-03T12:20:12;101659.78;;;25.12;47.23
39275;BME280;24980;48.874;2.332;2023-05-03T12:22:23;101653.59;;;25.13;47.24
39275;BME280;24980;48.874;2.332;2023-05-03T12:24:53;101654.53;;;25.11;47.24
39275;BME280;24980;48.874;2.332;2023-05-03T12:27:25;101652.66;;;25.13;47.25
39275;BME280;24980;48.874;2.332;2023-05-03T12:29:57;101649.44;;;25.12;47.25
39275;BME280;24980;48.874;2.332;2023-05-03T12:32:25;101647.73;;;25.14;47.26
39275;BME280;24980;48.874;2.332;2023-05-03T12:34:55;101639.98;;;25.15;47.28
39275;BME280;24980;48.874;2.332;2023-05-03T12:37:25;101638.45;;;25.16;47.30
39275;BME280;24980;48.874;2.332;2023-05-03T12:39:56;101626.66;;;25.16;47.31
39275;BME280;24980;48.874;2.332;2023-05-03T12:42:26;101623.56;;;25.17;47.31
39275;BME280;24980;48.874;2.332;2023-05-03T12:44:59;101622.62;;;25.19;47.31
39275;BME280;24980;48.874;2.332;2023-05-03T12:47:27;101615.41;;;25.20;47.33
39275;BME280;24980;48.874;2.332;2023-05-03T12:49:58;101614.05;;;25.20;47.33
39275;BME280;24980;48.874;2.332;2023-05-03T12:52:28;101615.11;;;25.21;47.34
39275;BME280;24980;48.874;2.332;2023-05-03T12:54:59;101622.06;;;25.22;47.34
39275;BME280;24980;48.874;2.332;2023-05-03T12:57:29;101614.84;;;25.23;47.35
39275;BME280;24980;48.874;2.332;2023-05-03T13:00:07;101614.22;;;25.24;47.35
39275;BME280;24980;48.874;2.332;2023-05-03T13:02:30;101608.86;;;25.25;47.37
39275;BME280;24980;48.874;2.332;2023-05-03T13:05:00;101609.20;;;25.26;47.39
39275;BME280;24980;48.874;2.332;2023-05-03T13:07:30;101600.76;;;25.28;47.44
39275;BME280;24980;48.874;2.332;2023-05-03T13:10:02;101594.39;;;25.29;47.46
39275;BME280;24980;48.874;2.332;2023-05-03T13:12:30;101596.34;;;25.29;47.47
39275;BME280;24980;48.874;2.332;2023-05-03T13:15:01;101595.62;;;25.31;47.46
39275;BME280;24980;48.874;2.332;2023-05-03T13:17:31;101591.80;;;25.33;47.46
39275;BME280;24980;48.874;2.332;2023-05-03T13:20:02;101582.67;;;25.34;47.46
39275;BME280;24980;48.874;2.332;2023-05-03T13:22:33;101580.12;;;25.34;47.44